Aviation Digital Data Service (ADDS)

Output produced by METARs form (2156 UTC 08 August 2020)
found at http://www.aviationweather.gov/metar/data/
 
METAR text: KFAT 082153Z 34004KT 10SM FEW100 FEW200 37/12 A2988 RMK AO2 SLP113 CU OMTNS N-E T03670117
Conditions at: KFAT (FRESNO , CA, US) observed 2153 UTC 08 August 2020
Temperature: 36.7°C (98°F)
Dewpoint: 11.7°C (53°F) [RH = 22%]
Pressure (altimeter): 29.88 inches Hg (1011.9 mb)
[Sea-level pressure: 1011.3 mb]
Winds: from the NNW (340 degrees) at 5 MPH (4 knots; 2.1 m/s)
Visibility: 10 or more miles (16+ km)
Ceiling: at least 12,000 feet AGL
Clouds: few clouds at 10000 feet AGL
few clouds at 20000 feet AGL
Weather: no significant weather observed at this time

Forecast for: KFAT (FRESNO , CA, US)
Text: KFAT 081721Z 0818/0918 VRB06KT P6SM SKC
Forecast period: 1800 UTC 08 August 2020 to 1800 UTC 09 August 2020
Forecast type: FROM: standard forecast or significant change
Winds: variable direction winds at 7 MPH (6 knots; 3.1 m/s)
Visibility: 6 or more miles (10+ km)
Clouds: clear skies
Weather: no significant weather forecast for this period